createdAt,value
2023-04-01T00:01:28.201Z,30.10
2023-04-01T00:03:30.578Z,31.13
2023-04-01T00:05:32.687Z,29.25
2023-04-01T00:07:34.805Z,28.80
2023-04-01T00:09:36.736Z,26.73
2023-04-01T00:11:38.687Z,32.75
2023-04-01T00:13:40.498Z,26.80
2023-04-01T00:15:43.025Z,24.93
2023-04-01T00:17:44.918Z,26.92
2023-04-01T00:19:46.780Z,26.38
2023-04-01T00:21:49.041Z,25.30
2023-04-01T00:23:51.679Z,26.30
2023-04-01T00:25:53.516Z,22.05
2023-04-01T00:27:55.459Z,22.98
2023-04-01T00:29:57.402Z,24.60
2023-04-01T00:31:59.369Z,25.20
2023-04-01T00:34:01.336Z,21.40
2023-04-01T00:36:10.051Z,24.02
2023-04-01T00:38:12.433Z,22.25
2023-04-01T00:40:24.844Z,22.48
2023-04-01T00:42:26.872Z,25.00
2023-04-01T00:44:30.515Z,22.92
2023-04-01T00:46:32.445Z,26.45
2023-04-01T00:48:43.104Z,21.10
2023-04-01T00:51:12.663Z,22.55
2023-04-01T00:53:14.477Z,24.70
2023-04-01T00:55:16.293Z,22.37
2023-04-01T00:57:35.060Z,21.43
2023-04-01T00:59:48.499Z,24.63
2023-04-01T01:01:50.610Z,26.02
2023-04-01T01:03:52.513Z,23.50
2023-04-01T01:06:09.662Z,24.73
2023-04-01T01:08:19.323Z,23.67
2023-04-01T01:10:34.237Z,22.98
2023-04-01T01:12:48.886Z,20.55
2023-04-01T01:15:01.190Z,25.77
2023-04-01T01:17:18.937Z,27.00
2023-04-01T01:20:02.944Z,22.83
2023-04-01T01:22:26.632Z,21.90
2023-04-01T01:24:37.656Z,25.48
2023-04-01T01:26:41.902Z,24.08
2023-04-01T01:29:29.193Z,22.50
2023-04-01T01:31:54.911Z,23.88
2023-04-01T01:34:11.750Z,24.48
2023-04-01T01:36:14.213Z,25.38
2023-04-01T01:38:20.769Z,23.58
2023-04-01T01:40:22.583Z,26.55
2023-04-01T01:42:25.423Z,27.97
2023-04-01T01:44:27.460Z,28.70
2023-04-01T01:46:29.295Z,25.98
2023-04-01T01:48:31.563Z,24.30
2023-04-01T01:50:33.563Z,24.10
2023-04-01T01:52:35.394Z,22.77
2023-04-01T01:54:37.296Z,20.27
2023-04-01T01:56:39.112Z,19.15
2023-04-01T01:58:43.837Z,21.23
2023-04-01T02:00:48.255Z,20.38
2023-04-01T02:02:50.213Z,14.75
2023-04-01T02:04:52.158Z,16.80
2023-04-01T02:07:03.245Z,16.00
2023-04-01T02:09:07.848Z,16.05
2023-04-01T02:11:11.529Z,17.92
2023-04-01T02:13:42.466Z,16.73
2023-04-01T02:15:46.013Z,15.48
2023-04-01T02:17:47.969Z,14.88
2023-04-01T02:20:09.888Z,16.38
2023-04-01T02:22:14.315Z,16.42
2023-04-01T02:24:17.061Z,17.73
2023-04-01T02:26:18.912Z,16.83
2023-04-01T02:28:21.608Z,18.77
2023-04-01T02:32:25.364Z,15.45
2023-04-01T02:34:27.211Z,14.32
2023-04-01T02:36:29.105Z,18.20
2023-04-01T02:38:31.013Z,14.07
2023-04-01T02:40:43.542Z,13.38
2023-04-01T02:42:45.835Z,13.30
2023-04-01T02:44:47.781Z,13.38
2023-04-01T02:46:49.703Z,14.75
2023-04-01T02:48:51.549Z,13.45
2023-04-01T02:50:53.471Z,12.80
2023-04-01T02:52:55.301Z,15.63
2023-04-01T02:54:57.719Z,10.83
2023-04-01T02:56:59.598Z,11.80
2023-04-01T02:59:01.427Z,14.52
2023-04-01T03:01:03.313Z,11.37
2023-04-01T03:03:05.367Z,11.15
2023-04-01T03:05:08.188Z,11.75
2023-04-01T03:07:11.072Z,12.52
2023-04-01T03:09:12.894Z,13.05
2023-04-01T03:11:14.764Z,13.70
2023-04-01T03:13:16.895Z,13.90
2023-04-01T03:15:18.754Z,13.73
2023-04-01T03:17:20.692Z,14.00
2023-04-01T03:19:22.567Z,15.57
2023-04-01T03:21:24.782Z,13.77
2023-04-01T03:23:26.654Z,14.18
2023-04-01T03:25:29.747Z,15.98
2023-04-01T03:27:31.622Z,15.18
2023-04-01T03:29:33.510Z,16.30
2023-04-01T03:31:35.711Z,15.77
2023-04-01T03:33:37.745Z,16.02
2023-04-01T03:35:39.572Z,18.95
2023-04-01T03:37:41.568Z,16.10
2023-04-01T03:39:44.620Z,15.85
2023-04-01T03:41:47.096Z,17.52
2023-04-01T03:43:48.896Z,13.90
2023-04-01T03:45:51.767Z,19.35
2023-04-01T03:47:53.677Z,14.75
2023-04-01T03:49:55.715Z,16.67
2023-04-01T03:51:57.625Z,14.20
2023-04-01T03:53:59.594Z,14.85
2023-04-01T03:56:05.936Z,17.58
2023-04-01T03:58:08.077Z,13.52
2023-04-01T04:00:10.406Z,15.43
2023-04-01T04:02:12.308Z,15.38
2023-04-01T04:04:14.264Z,13.70
2023-04-01T04:06:16.341Z,15.02
2023-04-01T04:08:18.214Z,13.45
2023-04-01T04:10:20.385Z,13.47
2023-04-01T04:12:23.351Z,11.25
2023-04-01T04:14:25.421Z,13.77
2023-04-01T04:16:27.334Z,16.00
2023-04-01T04:18:29.234Z,13.65
2023-04-01T04:20:31.082Z,16.03
2023-04-01T04:22:32.900Z,15.45
2023-04-01T04:24:37.507Z,13.17
2023-04-01T04:26:39.317Z,15.60
2023-04-01T04:28:41.375Z,19.80
2023-04-01T04:30:43.295Z,19.02
2023-04-01T04:32:45.206Z,19.95
2023-04-01T04:34:47.071Z,20.33
2023-04-01T04:36:49.344Z,21.90
2023-04-01T04:38:51.235Z,21.02
2023-04-01T04:40:53.086Z,24.55
2023-04-01T04:42:54.909Z,22.70
2023-04-01T04:44:56.908Z,26.88
2023-04-01T04:46:58.877Z,30.20
2023-04-01T04:49:00.753Z,29.77
2023-04-01T04:51:02.734Z,29.20
2023-04-01T04:53:04.661Z,28.75
2023-04-01T04:55:07.010Z,28.83
2023-04-01T04:57:09.374Z,30.27
2023-04-01T04:59:11.411Z,26.85
2023-04-01T05:01:14.964Z,31.90
2023-04-01T05:03:17.173Z,33.30
2023-04-01T05:05:19.129Z,28.38
2023-04-01T05:07:21.017Z,28.00
2023-04-01T05:09:22.846Z,30.23
2023-04-01T05:11:24.722Z,30.38
2023-04-01T05:13:26.564Z,27.80
2023-04-01T05:15:28.406Z,26.27
2023-04-01T05:17:30.341Z,26.53
2023-04-01T05:19:32.320Z,26.95
2023-04-01T05:21:34.129Z,26.80
2023-04-01T05:23:36.015Z,28.07
2023-04-01T05:25:39.279Z,29.27
2023-04-01T05:27:41.112Z,29.85
2023-04-01T05:29:42.954Z,31.02
2023-04-01T05:31:44.825Z,27.90
2023-04-01T05:33:46.736Z,30.52
2023-04-01T05:35:48.586Z,31.42
2023-04-01T05:37:50.674Z,31.30
2023-04-01T05:39:52.519Z,29.77
2023-04-01T05:41:54.382Z,32.30
2023-04-01T05:43:56.363Z,39.72
2023-04-01T05:45:58.738Z,37.58
2023-04-01T05:48:00.719Z,36.55
2023-04-01T05:50:02.632Z,37.30
2023-04-01T05:52:04.544Z,33.80
2023-04-01T05:54:06.838Z,37.28
2023-04-01T05:56:10.461Z,38.17
2023-04-01T05:58:12.325Z,38.53
2023-04-01T06:00:14.788Z,35.70
2023-04-01T06:02:18.345Z,36.35
2023-04-01T06:04:20.263Z,39.25
2023-04-01T06:06:26.837Z,33.38
2023-04-01T06:08:29.049Z,33.47
2023-04-01T06:11:00.807Z,27.23
2023-04-01T06:13:06.501Z,30.48
2023-04-01T06:15:36.003Z,25.25
2023-04-01T06:17:40.701Z,23.95
2023-04-01T06:20:13.091Z,22.67
2023-04-01T06:22:29.119Z,19.52
2023-04-01T06:24:51.852Z,20.67
2023-04-01T06:27:19.836Z,18.65
2023-04-01T06:30:10.007Z,18.23
2023-04-01T06:32:24.200Z,17.38
2023-04-01T06:34:45.738Z,17.27
2023-04-01T06:37:09.134Z,17.75
2023-04-01T06:39:32.847Z,16.10
2023-04-01T06:41:53.330Z,15.57
2023-04-01T06:44:18.151Z,16.35
2023-04-01T06:46:26.396Z,19.27
2023-04-01T06:48:32.991Z,14.27
2023-04-01T06:50:42.399Z,16.65
2023-04-01T06:52:48.311Z,13.07
2023-04-01T06:54:56.491Z,18.92
2023-04-01T06:57:31.566Z,15.95
2023-04-01T06:59:34.553Z,17.13
2023-04-01T07:02:15.570Z,14.00
2023-04-01T07:04:22.535Z,17.05
2023-04-01T07:06:36.873Z,14.93
2023-04-01T07:08:40.230Z,15.77
2023-04-01T07:11:05.336Z,17.35
2023-04-01T07:13:10.977Z,14.98
2023-04-01T07:15:20.360Z,17.23
2023-04-01T07:17:30.038Z,15.02
2023-04-01T07:19:42.186Z,14.13
2023-04-01T07:22:01.924Z,15.37
2023-04-01T07:24:10.235Z,14.75
2023-04-01T07:26:30.217Z,16.52
2023-04-01T07:28:33.005Z,17.80
2023-04-01T07:31:19.453Z,19.23
2023-04-01T07:33:28.504Z,16.48
2023-04-01T07:36:17.068Z,17.17
2023-04-01T07:38:42.951Z,17.65
2023-04-01T07:40:48.071Z,19.95
2023-04-01T07:42:55.986Z,19.63
2023-04-01T07:45:19.449Z,18.10
2023-04-01T07:47:36.399Z,19.90
2023-04-01T07:50:03.794Z,18.92
2023-04-01T07:52:14.691Z,17.15
2023-04-01T07:54:30.430Z,19.80
2023-04-01T07:56:50.779Z,21.33
2023-04-01T07:59:07.321Z,22.95
2023-04-01T08:01:32.586Z,18.00
2023-04-01T08:03:53.204Z,18.73
2023-04-01T08:06:17.387Z,17.55
2023-04-01T08:08:30.964Z,17.33
2023-04-01T08:10:47.992Z,20.73
2023-04-01T08:13:11.897Z,20.45
2023-04-01T08:15:29.329Z,14.45
2023-04-01T08:17:46.862Z,21.30
2023-04-01T08:19:54.558Z,14.75
2023-04-01T08:21:58.807Z,15.00
2023-04-01T08:24:06.641Z,18.88
2023-04-01T08:26:20.667Z,17.02
2023-04-01T08:28:37.828Z,15.65
2023-04-01T08:30:49.095Z,19.20
2023-04-01T08:33:02.400Z,18.60
2023-04-01T08:35:19.411Z,21.55
2023-04-01T08:37:23.373Z,16.92
2023-04-01T08:39:33.352Z,14.73
2023-04-01T08:41:41.111Z,12.10
2023-04-01T08:43:50.446Z,12.63
2023-04-01T08:46:04.609Z,14.35
2023-04-01T08:48:31.282Z,13.15
2023-04-01T08:50:37.779Z,13.60
2023-04-01T08:53:04.701Z,12.23
2023-04-01T08:55:36.297Z,11.32
2023-04-01T08:57:51.731Z,13.25
2023-04-01T09:00:13.053Z,11.00
2023-04-01T09:02:27.106Z,11.73
2023-04-01T09:04:34.893Z,12.48
2023-04-01T09:06:49.066Z,11.43
2023-04-01T09:09:21.173Z,12.70
2023-04-01T09:11:44.848Z,11.70
2023-04-01T09:13:50.862Z,9.13
2023-04-01T09:16:03.012Z,8.32
2023-04-01T09:18:29.146Z,8.95
2023-04-01T09:20:45.703Z,7.63
2023-04-01T09:23:09.429Z,6.80
2023-04-01T09:25:21.686Z,7.18
2023-04-01T09:27:31.941Z,7.32
2023-04-01T09:29:46.085Z,6.65
2023-04-01T09:32:12.629Z,7.85
2023-04-01T09:34:29.328Z,6.30
2023-04-01T09:36:55.997Z,5.03
2023-04-01T09:39:00.138Z,4.15
2023-04-01T09:41:04.537Z,4.45
2023-04-01T09:43:18.084Z,5.75
2023-04-01T09:45:43.124Z,6.97
2023-04-01T09:47:50.793Z,4.03
2023-04-01T09:50:08.045Z,4.32
2023-04-01T09:52:22.563Z,4.47
2023-04-01T09:54:54.878Z,4.43
2023-04-01T09:57:30.508Z,5.40
2023-04-01T10:00:06.089Z,5.90
2023-04-01T10:02:35.222Z,3.97
2023-04-01T10:04:43.621Z,4.75
2023-04-01T10:07:22.807Z,3.90
2023-04-01T10:10:01.800Z,5.30
2023-04-01T10:12:31.242Z,5.75
2023-04-01T10:15:00.562Z,7.20
2023-04-01T10:17:27.662Z,6.43
2023-04-01T10:20:07.960Z,4.85
2023-04-01T10:22:40.518Z,11.00
2023-04-01T10:24:51.367Z,8.52
2023-04-01T10:27:31.440Z,7.05
2023-04-01T10:29:36.081Z,6.70
2023-04-01T10:31:47.222Z,6.28
2023-04-01T10:34:07.387Z,7.57
2023-04-01T10:36:31.094Z,9.38
2023-04-01T10:38:35.997Z,7.75
2023-04-01T10:40:42.226Z,7.72
2023-04-01T10:42:50.383Z,7.20
2023-04-01T10:45:16.412Z,6.85
2023-04-01T10:47:37.333Z,8.70
2023-04-01T10:50:16.908Z,8.02
2023-04-01T10:52:54.090Z,5.88
2023-04-01T10:55:20.377Z,5.38
2023-04-01T10:57:40.761Z,6.28
2023-04-01T11:00:07.698Z,9.00
2023-04-01T11:02:28.080Z,7.38
2023-04-01T11:04:51.695Z,6.20
2023-04-01T11:07:40.148Z,5.97
2023-04-01T11:10:08.931Z,9.07
2023-04-01T11:12:55.562Z,10.93
2023-04-01T11:15:38.436Z,12.35
2023-04-01T11:17:43.058Z,13.70
2023-04-01T11:20:03.780Z,9.30
2023-04-01T11:22:27.163Z,7.95
2023-04-01T11:24:58.285Z,5.57
2023-04-01T11:27:39.727Z,7.15
2023-04-01T11:29:56.714Z,6.20
2023-04-01T11:32:36.255Z,6.07
2023-04-01T11:34:56.419Z,7.13
2023-04-01T11:37:13.619Z,7.57
2023-04-01T11:39:58.171Z,7.25
2023-04-01T11:42:21.241Z,7.45
2023-04-01T11:44:28.352Z,8.57
2023-04-01T11:46:47.503Z,10.52
2023-04-01T11:49:07.920Z,7.20
2023-04-01T11:51:40.169Z,6.13
2023-04-01T11:54:30.894Z,11.45
2023-04-01T11:56:38.880Z,8.85
2023-04-01T11:59:18.466Z,8.05
2023-04-01T12:01:29.473Z,6.10
2023-04-01T12:04:01.787Z,6.93
2023-04-01T12:06:08.308Z,5.57
2023-04-01T12:08:49.589Z,4.75
2023-04-01T12:11:18.711Z,4.50
2023-04-01T12:13:46.277Z,3.45
2023-04-01T12:16:06.193Z,3.85
2023-04-01T12:18:56.422Z,3.40
2023-04-01T12:21:07.651Z,3.67
2023-04-01T12:23:27.980Z,4.85
2023-04-01T12:26:08.184Z,4.30
2023-04-01T12:28:38.660Z,5.82
2023-04-01T12:31:07.924Z,4.75
2023-04-01T12:33:25.890Z,4.53
2023-04-01T12:35:53.799Z,4.05
2023-04-01T12:38:27.272Z,4.03
2023-04-01T12:41:12.082Z,5.10
2023-04-01T12:43:36.065Z,3.38
2023-04-01T12:45:59.028Z,3.92
2023-04-01T12:48:19.707Z,4.07
2023-04-01T12:50:28.830Z,3.65
2023-04-01T12:52:33.543Z,4.05
2023-04-01T12:54:47.595Z,3.30
2023-04-01T12:56:59.422Z,4.55
2023-04-01T12:59:13.379Z,3.00
2023-04-01T13:01:43.375Z,3.20
2023-04-01T13:04:07.567Z,3.35
2023-04-01T13:06:15.938Z,4.72
2023-04-01T13:08:23.992Z,3.83
2023-04-01T13:10:33.170Z,3.00
2023-04-01T13:12:58.868Z,3.45
2023-04-01T13:15:35.100Z,3.92
2023-04-01T13:18:04.545Z,3.67
2023-04-01T13:20:18.584Z,3.40
2023-04-01T13:22:32.655Z,4.63
2023-04-01T13:25:01.524Z,3.75
2023-04-01T13:27:06.078Z,3.00
2023-04-01T13:29:13.712Z,2.80
2023-04-01T13:31:24.213Z,3.58
2023-04-01T13:33:51.475Z,2.75
2023-04-01T13:36:09.434Z,5.43
2023-04-01T13:38:35.511Z,4.00
2023-04-01T13:41:01.736Z,2.30
2023-04-01T13:43:13.196Z,2.78
2023-04-01T13:45:16.583Z,3.17
2023-04-01T13:47:18.668Z,2.97
2023-04-01T13:49:25.908Z,4.18
2023-04-01T13:51:49.381Z,4.85
2023-04-01T13:54:13.179Z,3.28
2023-04-01T13:56:40.607Z,4.28
2023-04-01T13:58:55.527Z,4.53
2023-04-01T14:01:28.649Z,4.30
2023-04-01T14:03:56.640Z,4.57
2023-04-01T14:06:21.046Z,4.30
2023-04-01T14:08:45.253Z,3.83
2023-04-01T14:11:10.413Z,3.38
2023-04-01T14:13:15.536Z,5.88
2023-04-01T14:15:30.397Z,4.22
2023-04-01T14:17:37.947Z,5.05
2023-04-01T14:19:50.809Z,4.47
2023-04-01T14:22:30.078Z,4.78
2023-04-01T14:24:47.249Z,6.82
2023-04-01T14:27:09.202Z,5.28
2023-04-01T14:29:16.831Z,5.47
2023-04-01T14:31:43.226Z,4.75
2023-04-01T14:34:00.390Z,5.68
2023-04-01T14:36:20.983Z,4.03
2023-04-01T14:38:34.991Z,5.35
2023-04-01T14:40:49.160Z,4.38
2023-04-01T14:43:15.647Z,4.63
2023-04-01T14:45:36.056Z,7.88
2023-04-01T14:47:47.495Z,13.80
2023-04-01T14:50:13.263Z,8.98
2023-04-01T14:52:27.191Z,6.45
2023-04-01T14:54:36.858Z,5.10
2023-04-01T14:56:46.195Z,7.60
2023-04-01T14:58:51.322Z,7.20
2023-04-01T15:01:18.763Z,6.13
2023-04-01T15:03:32.718Z,5.50
2023-04-01T15:05:40.751Z,5.80
2023-04-01T15:08:01.143Z,5.80
2023-04-01T15:10:44.727Z,6.93
2023-04-01T15:13:26.197Z,6.47
2023-04-01T15:15:46.732Z,5.00
2023-04-01T15:17:59.486Z,4.25
2023-04-01T15:20:24.728Z,4.97
2023-04-01T15:22:33.170Z,6.38
2023-04-01T15:24:56.655Z,4.95
2023-04-01T15:27:12.236Z,4.75
2023-04-01T15:29:36.853Z,6.25
2023-04-01T15:31:50.088Z,4.80
2023-04-01T15:34:19.068Z,6.43
2023-04-01T15:36:21.497Z,7.05
2023-04-01T15:38:43.835Z,5.85
2023-04-01T15:40:49.623Z,5.93
2023-04-01T15:42:57.764Z,5.30
2023-04-01T15:45:08.707Z,7.63
2023-04-01T15:47:41.186Z,7.55
2023-04-01T15:49:44.736Z,4.65
2023-04-01T15:52:07.303Z,5.03
2023-04-01T15:54:46.815Z,4.63
2023-04-01T15:56:57.630Z,4.45
2023-04-01T15:59:21.413Z,4.38
2023-04-01T16:01:51.737Z,3.72
2023-04-01T16:04:18.619Z,4.80
2023-04-01T16:07:05.056Z,6.38
2023-04-01T16:09:13.048Z,4.65
2023-04-01T16:11:20.175Z,4.10
2023-04-01T16:13:37.173Z,5.53
2023-04-01T16:16:06.330Z,4.90
2023-04-01T16:18:29.451Z,4.07
2023-04-01T16:21:03.636Z,7.97
2023-04-01T16:23:33.620Z,5.97
2023-04-01T16:25:43.009Z,5.45
2023-04-01T16:28:05.763Z,6.50
2023-04-01T16:30:22.737Z,5.07
2023-04-01T16:32:44.763Z,5.57
2023-04-01T16:34:49.920Z,7.60
2023-04-01T16:36:52.961Z,6.63
2023-04-01T16:39:09.443Z,4.05
2023-04-01T16:41:33.122Z,4.70
2023-04-01T16:43:53.186Z,4.93
2023-04-01T16:46:17.970Z,6.88
2023-04-01T16:48:21.849Z,5.75
2023-04-01T16:50:24.639Z,5.32
2023-04-01T16:52:49.433Z,6.57
2023-04-01T16:55:00.924Z,6.97
2023-04-01T16:57:17.266Z,4.22
2023-04-01T16:59:50.847Z,9.40
2023-04-01T17:04:01.810Z,12.63
2023-04-01T17:06:14.861Z,11.35
2023-04-01T17:08:31.680Z,10.00
2023-04-01T17:10:59.056Z,6.38
2023-04-01T17:13:28.527Z,8.13
2023-04-01T17:15:41.458Z,6.35
2023-04-01T17:20:10.183Z,8.48
2023-04-01T17:22:27.266Z,7.68
2023-04-01T17:24:54.552Z,7.35
2023-04-01T17:27:05.752Z,8.68
2023-04-01T17:29:26.771Z,8.43
2023-04-01T17:31:48.328Z,6.97
2023-04-01T17:33:58.867Z,5.95
2023-04-01T17:36:02.843Z,6.72
2023-04-01T17:38:42.114Z,5.72
2023-04-01T17:40:57.265Z,5.90
2023-04-01T17:43:18.871Z,5.07
2023-04-01T17:45:58.561Z,5.68
2023-04-01T17:48:23.051Z,6.28
2023-04-01T17:50:43.662Z,5.18
2023-04-01T17:53:03.357Z,4.80
2023-04-01T17:55:24.009Z,4.65
2023-04-01T17:57:37.250Z,5.82
2023-04-01T17:59:40.858Z,4.35
2023-04-01T18:02:01.491Z,6.55
2023-04-01T18:04:18.590Z,6.63
2023-04-01T18:06:21.503Z,6.53
2023-04-01T18:08:44.625Z,5.00
2023-04-01T18:11:08.812Z,6.20
2023-04-01T18:13:15.821Z,6.00
2023-04-01T18:15:20.899Z,6.97
2023-04-01T18:18:04.380Z,8.48
2023-04-01T18:20:16.400Z,5.55
2023-04-01T18:22:29.625Z,7.33
2023-04-01T18:24:45.234Z,8.23
2023-04-01T18:27:06.275Z,8.95
2023-04-01T18:29:29.592Z,9.00
2023-04-01T18:31:37.890Z,6.63
2023-04-01T18:34:04.787Z,5.65
2023-04-01T18:36:11.770Z,6.25
2023-04-01T18:38:14.809Z,9.02
2023-04-01T18:40:31.874Z,10.90
2023-04-01T18:43:03.081Z,11.00
2023-04-01T18:45:04.918Z,10.20
2023-04-01T18:47:14.438Z,9.32
2023-04-01T18:49:40.555Z,7.57
2023-04-01T18:51:58.484Z,10.32
2023-04-01T18:54:11.266Z,13.77
2023-04-01T18:56:24.804Z,9.00
2023-04-01T18:58:35.980Z,9.55
2023-04-01T19:01:02.331Z,7.78
2023-04-01T19:03:22.032Z,9.98
2023-04-01T19:05:35.338Z,11.80
2023-04-01T19:07:50.778Z,14.18
2023-04-01T19:09:52.630Z,10.38
2023-04-01T19:12:06.763Z,13.93
2023-04-01T19:14:18.359Z,11.32
2023-04-01T19:16:51.597Z,10.88
2023-04-01T19:19:12.182Z,12.02
2023-04-01T19:21:23.025Z,11.45
2023-04-01T19:23:45.650Z,14.95
2023-04-01T19:25:58.255Z,12.27
2023-04-01T19:28:23.992Z,15.18
2023-04-01T19:30:35.825Z,14.85
2023-04-01T19:33:06.666Z,11.75
2023-04-01T19:35:24.981Z,14.93
2023-04-01T19:37:40.477Z,13.65
2023-04-01T19:40:03.619Z,12.90
2023-04-01T19:44:31.062Z,15.25
2023-04-01T19:46:47.308Z,18.55
2023-04-01T19:49:36.695Z,13.35
2023-04-01T19:51:59.254Z,19.10
2023-04-01T19:54:22.712Z,16.88
2023-04-01T19:56:24.850Z,13.77
2023-04-01T19:58:33.031Z,14.70
2023-04-01T20:01:12.839Z,13.43
2023-04-01T20:03:23.227Z,13.35
2023-04-01T20:05:31.613Z,9.65
2023-04-01T20:07:38.035Z,14.95
2023-04-01T20:09:46.736Z,10.20
2023-04-01T20:12:15.972Z,13.52
2023-04-01T20:14:40.016Z,12.13
2023-04-01T20:16:54.076Z,12.30
2023-04-01T20:18:58.134Z,10.18
2023-04-01T20:21:19.560Z,13.85
2023-04-01T20:23:41.021Z,12.05
2023-04-01T20:25:59.121Z,9.18
2023-04-01T20:28:19.072Z,14.00
2023-04-01T20:30:55.461Z,9.52
2023-04-01T20:33:27.796Z,10.77
2023-04-01T20:35:33.183Z,11.85
2023-04-01T20:38:16.963Z,12.68
2023-04-01T20:40:27.531Z,13.45
2023-04-01T20:42:36.465Z,11.55
2023-04-01T20:44:51.371Z,11.65
2023-04-01T20:47:28.559Z,9.75
2023-04-01T20:49:48.647Z,10.95
2023-04-01T20:51:55.885Z,14.48
2023-04-01T20:54:26.016Z,11.93
2023-04-01T20:57:12.832Z,13.48
2023-04-01T20:59:36.742Z,11.60
2023-04-01T21:01:57.565Z,12.70
2023-04-01T21:04:11.959Z,10.82
2023-04-01T21:06:29.240Z,14.15
2023-04-01T21:08:37.444Z,13.63
2023-04-01T21:10:51.405Z,12.85
2023-04-01T21:13:05.028Z,11.40
2023-04-01T21:15:31.873Z,10.52
2023-04-01T21:17:39.405Z,9.65
2023-04-01T21:20:10.574Z,9.18
2023-04-01T21:22:37.696Z,8.93
2023-04-01T21:24:49.627Z,10.10
2023-04-01T21:27:13.433Z,9.02
2023-04-01T21:29:29.853Z,9.48
2023-04-01T21:31:50.722Z,10.32
2023-04-01T21:34:19.132Z,12.60
2023-04-01T21:36:41.309Z,10.80
2023-04-01T21:39:01.908Z,7.82
2023-04-01T21:41:21.923Z,13.18
2023-04-01T21:44:11.578Z,11.30
2023-04-01T21:46:40.928Z,10.55
2023-04-01T21:49:13.303Z,12.10
2023-04-01T21:51:17.828Z,13.75
2023-04-01T21:53:41.508Z,15.07
2023-04-01T21:56:21.061Z,10.48
2023-04-01T21:58:50.490Z,15.25
2023-04-01T22:00:57.882Z,13.13
2023-04-01T22:03:19.782Z,14.93
2023-04-01T22:05:35.956Z,12.90
2023-04-01T22:08:02.808Z,20.30
2023-04-01T22:10:26.630Z,16.20
2023-04-01T22:12:31.896Z,15.88
2023-04-01T22:15:02.283Z,17.92
2023-04-01T22:17:06.754Z,18.45
2023-04-01T22:19:26.721Z,18.75
2023-04-01T22:21:53.558Z,14.27
2023-04-01T22:24:25.939Z,20.35
2023-04-01T22:26:38.701Z,14.50
2023-04-01T22:29:01.117Z,17.67
2023-04-01T22:31:03.780Z,14.43
2023-04-01T22:35:19.481Z,17.35
2023-04-01T22:37:47.467Z,15.93
2023-04-01T22:40:01.151Z,16.33
2023-04-01T22:42:27.593Z,15.85
2023-04-01T22:44:32.498Z,15.45
2023-04-01T22:46:44.918Z,18.15
2023-04-01T22:49:07.229Z,19.60
2023-04-01T22:51:45.956Z,12.80
2023-04-01T22:53:48.001Z,20.77
2023-04-01T22:55:53.603Z,13.10
2023-04-01T22:58:06.474Z,14.07
2023-04-01T23:00:21.660Z,14.50
2023-04-01T23:02:26.883Z,12.85
2023-04-01T23:04:32.640Z,11.35
2023-04-01T23:06:43.615Z,11.10
2023-04-01T23:09:05.145Z,11.25
2023-04-01T23:11:39.018Z,15.10
2023-04-01T23:13:46.809Z,14.65
2023-04-01T23:15:48.668Z,15.10
2023-04-01T23:17:58.223Z,12.77
2023-04-01T23:20:00.181Z,10.80
2023-04-01T23:22:31.124Z,11.77
2023-04-01T23:24:43.164Z,11.65
2023-04-01T23:26:51.672Z,11.13
2023-04-01T23:28:55.176Z,14.73
2023-04-01T23:30:57.063Z,10.35
2023-04-01T23:33:18.852Z,17.83
2023-04-01T23:35:20.921Z,16.65
2023-04-01T23:37:22.924Z,11.20
2023-04-01T23:39:31.960Z,13.70
2023-04-01T23:41:33.788Z,13.52
2023-04-01T23:43:38.066Z,21.98
2023-04-01T23:45:39.918Z,12.48
2023-04-01T23:47:42.034Z,12.05
2023-04-01T23:49:56.080Z,8.95
2023-04-01T23:52:05.406Z,9.85
2023-04-01T23:54:26.100Z,9.85
2023-04-01T23:56:48.232Z,9.02
2023-04-01T23:58:53.478Z,10.45
